sensor_id;sensor_type;location;lat;lon;timestamp;pressure;altitude;pressure_sealevel;temperature;humidity
44765;BME280;30484;52.382;5.260;2023-04-26T00:00:12;102033.34;;;8.94;100.00
44765;BME280;30484;52.382;5.260;2023-04-26T00:02:42;102040.56;;;8.89;100.00
44765;BME280;30484;52.382;5.260;2023-04-26T00:05:10;102035.06;;;8.95;100.00
44765;BME280;30484;52.382;5.260;2023-04-26T00:07:41;102030.50;;;9.00;100.00
44765;BME280;30484;52.382;5.260;2023-04-26T00:10:10;102029.06;;;8.87;100.00
44765;BME280;30484;52.382;5.260;2023-04-26T00:12:38;102030.78;;;8.89;100.00
44765;BME280;30484;52.382;5.260;2023-04-26T00:15:13;102028.09;;;8.91;100.00
44765;BME280;30484;52.382;5.260;2023-04-26T00:17:42;102037.09;;;8.85;100.00
44765;BME280;30484;52.382;5.260;2023-04-26T00:20:11;102036.25;;;8.83;100.00
44765;BME280;30484;52.382;5.260;2023-04-26T00:22:40;102032.22;;;8.67;100.00
44765;BME280;30484;52.382;5.260;2023-04-26T00:25:09;102032.09;;;8.71;100.00
44765;BME280;30484;52.382;5.260;2023-04-26T00:27:38;102025.97;;;8.66;100.00
44765;BME280;30484;52.382;5.260;2023-04-26T00:30:08;102035.66;;;8.70;100.00
44765;BME280;30484;52.382;5.260;2023-04-26T00:32:41;102028.59;;;8.68;100.00
44765;BME280;30484;52.382;5.260;2023-04-26T00:35:10;102026.88;;;8.67;100.00
44765;BME280;30484;52.382;5.260;2023-04-26T00:37:38;102028.81;;;8.60;100.00
44765;BME280;30484;52.382;5.260;2023-04-26T00:40:09;102036.22;;;8.45;100.00
44765;BME280;30484;52.382;5.260;2023-04-26T00:42:38;102029.00;;;8.51;100.00
44765;BME280;30484;52.382;5.260;2023-04-26T00:45:08;102026.41;;;8.48;100.00
44765;BME280;30484;52.382;5.260;2023-04-26T00:47:38;102018.69;;;8.35;100.00
44765;BME280;30484;52.382;5.260;2023-04-26T00:50:07;102025.56;;;8.45;100.00
44765;BME280;30484;52.382;5.260;2023-04-26T00:52:37;102024.25;;;8.23;100.00
44765;BME280;30484;52.382;5.260;2023-04-26T00:55:07;102016.78;;;8.40;100.00
44765;BME280;30484;52.382;5.260;2023-04-26T00:57:36;102016.88;;;8.36;100.00
44765;BME280;30484;52.382;5.260;2023-04-26T01:00:11;102012.47;;;8.35;100.00
44765;BME280;30484;52.382;5.260;2023-04-26T01:02:41;102013.72;;;8.18;100.00
44765;BME280;30484;52.382;5.260;2023-04-26T01:05:10;102015.38;;;8.24;100.00
44765;BME280;30484;52.382;5.260;2023-04-26T01:07:39;102017.38;;;8.12;100.00
44765;BME280;30484;52.382;5.260;2023-04-26T01:10:09;102014.72;;;8.12;100.00
44765;BME280;30484;52.382;5.260;2023-04-26T01:12:38;102019.06;;;8.17;100.00
44765;BME280;30484;52.382;5.260;2023-04-26T01:15:08;102023.59;;;8.11;100.00
44765;BME280;30484;52.382;5.260;2023-04-26T01:17:37;102036.91;;;8.11;100.00
44765;BME280;30484;52.382;5.260;2023-04-26T01:20:08;102023.59;;;8.11;100.00
44765;BME280;30484;52.382;5.260;2023-04-26T01:22:39;102038.88;;;8.02;100.00
44765;BME280;30484;52.382;5.260;2023-04-26T01:25:11;102028.94;;;8.11;100.00
44765;BME280;30484;52.382;5.260;2023-04-26T01:27:39;102027.13;;;8.12;100.00
44765;BME280;30484;52.382;5.260;2023-04-26T01:30:09;102024.66;;;8.04;100.00
44765;BME280;30484;52.382;5.260;2023-04-26T01:32:38;102025.63;;;8.00;100.00
44765;BME280;30484;52.382;5.260;2023-04-26T01:35:08;102031.00;;;7.97;100.00
44765;BME280;30484;52.382;5.260;2023-04-26T01:37:36;102024.81;;;7.95;100.00
44765;BME280;30484;52.382;5.260;2023-04-26T01:40:08;102031.03;;;7.95;100.00
44765;BME280;30484;52.382;5.260;2023-04-26T01:42:37;102030.22;;;7.92;100.00
44765;BME280;30484;52.382;5.260;2023-04-26T01:45:06;102029.31;;;7.93;100.00
44765;BME280;30484;52.382;5.260;2023-04-26T01:47:35;102029.25;;;7.96;100.00
44765;BME280;30484;52.382;5.260;2023-04-26T01:50:06;102039.91;;;7.94;100.00
44765;BME280;30484;52.382;5.260;2023-04-26T01:52:34;102032.00;;;7.91;100.00
44765;BME280;30484;52.382;5.260;2023-04-26T01:55:04;102028.47;;;7.91;100.00
44765;BME280;30484;52.382;5.260;2023-04-26T01:57:34;102026.78;;;7.87;100.00
44765;BME280;30484;52.382;5.260;2023-04-26T02:00:05;102021.63;;;7.77;100.00
44765;BME280;30484;52.382;5.260;2023-04-26T02:02:34;102017.03;;;7.86;100.00
44765;BME280;30484;52.382;5.260;2023-04-26T02:05:04;102017.50;;;7.63;100.00
44765;BME280;30484;52.382;5.260;2023-04-26T02:07:33;102014.66;;;7.72;100.00
44765;BME280;30484;52.382;5.260;2023-04-26T02:10:01;102017.16;;;7.78;100.00
44765;BME280;30484;52.382;5.260;2023-04-26T02:12:30;102016.38;;;7.74;100.00
44765;BME280;30484;52.382;5.260;2023-04-26T02:15:01;102015.63;;;7.66;100.00
44765;BME280;30484;52.382;5.260;2023-04-26T02:17:29;102008.66;;;7.60;100.00
44765;BME280;30484;52.382;5.260;2023-04-26T02:20:02;102014.84;;;7.63;100.00
44765;BME280;30484;52.382;5.260;2023-04-26T02:22:30;102022.03;;;7.57;100.00
44765;BME280;30484;52.382;5.260;2023-04-26T02:24:59;102016.66;;;7.59;100.00
44765;BME280;30484;52.382;5.260;2023-04-26T02:27:27;102014.91;;;7.58;100.00
44765;BME280;30484;52.382;5.260;2023-04-26T02:29:56;102011.41;;;7.56;100.00
44765;BME280;30484;52.382;5.260;2023-04-26T02:32:25;102018.66;;;7.48;100.00
44765;BME280;30484;52.382;5.260;2023-04-26T02:34:54;102015.28;;;7.38;100.00
44765;BME280;30484;52.382;5.260;2023-04-26T02:37:23;102025.13;;;7.33;100.00
44765;BME280;30484;52.382;5.260;2023-04-26T02:39:51;102022.28;;;7.42;100.00
44765;BME280;30484;52.382;5.260;2023-04-26T02:42:22;102019.75;;;7.36;100.00
44765;BME280;30484;52.382;5.260;2023-04-26T02:44:50;102006.56;;;7.31;100.00
44765;BME280;30484;52.382;5.260;2023-04-26T02:47:19;102023.28;;;7.36;100.00
44765;BME280;30484;52.382;5.260;2023-04-26T02:49:50;102010.22;;;7.24;100.00
44765;BME280;30484;52.382;5.260;2023-04-26T02:52:19;102017.22;;;7.30;100.00
44765;BME280;30484;52.382;5.260;2023-04-26T02:54:50;102022.78;;;7.16;100.00
44765;BME280;30484;52.382;5.260;2023-04-26T02:57:19;102019.38;;;7.06;100.00
44765;BME280;30484;52.382;5.260;2023-04-26T02:59:48;102010.34;;;7.16;100.00
44765;BME280;30484;52.382;5.260;2023-04-26T03:02:17;102017.53;;;7.09;100.00
44765;BME280;30484;52.382;5.260;2023-04-26T03:04:45;102019.44;;;7.03;100.00
44765;BME280;30484;52.382;5.260;2023-04-26T03:07:15;102013.03;;;7.15;100.00
44765;BME280;30484;52.382;5.260;2023-04-26T03:09:43;102011.53;;;7.00;100.00
44765;BME280;30484;52.382;5.260;2023-04-26T03:12:12;102010.44;;;7.12;100.00
44765;BME280;30484;52.382;5.260;2023-04-26T03:14:40;102020.16;;;7.11;100.00
44765;BME280;30484;52.382;5.260;2023-04-26T03:17:09;102018.50;;;7.04;100.00
44765;BME280;30484;52.382;5.260;2023-04-26T03:19:38;102012.75;;;7.30;100.00
44765;BME280;30484;52.382;5.260;2023-04-26T03:22:06;102012.59;;;7.39;100.00
44765;BME280;30484;52.382;5.260;2023-04-26T03:24:36;102015.22;;;7.42;100.00
44765;BME280;30484;52.382;5.260;2023-04-26T03:27:04;102023.25;;;7.38;100.00
44765;BME280;30484;52.382;5.260;2023-04-26T03:29:33;102025.47;;;7.11;100.00
44765;BME280;30484;52.382;5.260;2023-04-26T03:32:01;102025.72;;;7.49;100.00
44765;BME280;30484;52.382;5.260;2023-04-26T03:34:30;102020.91;;;7.69;100.00
44765;BME280;30484;52.382;5.260;2023-04-26T03:36:58;102008.59;;;7.64;100.00
44765;BME280;30484;52.382;5.260;2023-04-26T03:39:27;102001.88;;;7.91;100.00
44765;BME280;30484;52.382;5.260;2023-04-26T03:41:57;101994.53;;;8.01;100.00
44765;BME280;30484;52.382;5.260;2023-04-26T03:44:29;101995.03;;;8.20;100.00
44765;BME280;30484;52.382;5.260;2023-04-26T03:46:58;101991.31;;;8.28;100.00
44765;BME280;30484;52.382;5.260;2023-04-26T03:49:31;101996.44;;;8.36;100.00
44765;BME280;30484;52.382;5.260;2023-04-26T03:52:00;101994.59;;;8.40;100.00
44765;BME280;30484;52.382;5.260;2023-04-26T03:54:29;101989.25;;;8.41;100.00
44765;BME280;30484;52.382;5.260;2023-04-26T03:56:59;101999.19;;;8.33;100.00
44765;BME280;30484;52.382;5.260;2023-04-26T03:59:27;101991.00;;;8.42;100.00
44765;BME280;30484;52.382;5.260;2023-04-26T04:01:56;101993.66;;;8.42;100.00
44765;BME280;30484;52.382;5.260;2023-04-26T04:04:25;102003.53;;;8.37;100.00
44765;BME280;30484;52.382;5.260;2023-04-26T04:06:54;101999.31;;;8.27;100.00
44765;BME280;30484;52.382;5.260;2023-04-26T04:09:22;102003.63;;;8.33;100.00
44765;BME280;30484;52.382;5.260;2023-04-26T04:11:51;102001.09;;;8.28;100.00
44765;BME280;30484;52.382;5.260;2023-04-26T04:14:22;102007.28;;;8.28;100.00
44765;BME280;30484;52.382;5.260;2023-04-26T04:16:51;102003.09;;;8.17;100.00
44765;BME280;30484;52.382;5.260;2023-04-26T04:19:27;102000.63;;;8.07;100.00
44765;BME280;30484;52.382;5.260;2023-04-26T04:21:58;102001.50;;;8.09;100.00
44765;BME280;30484;52.382;5.260;2023-04-26T04:24:27;101992.13;;;7.90;100.00
44765;BME280;30484;52.382;5.260;2023-04-26T04:26:56;101990.97;;;8.02;100.00
44765;BME280;30484;52.382;5.260;2023-04-26T04:29:28;101994.50;;;8.02;100.00
44765;BME280;30484;52.382;5.260;2023-04-26T04:31:58;101995.78;;;7.84;100.00
44765;BME280;30484;52.382;5.260;2023-04-26T04:34:27;102006.34;;;7.89;100.00
44765;BME280;30484;52.382;5.260;2023-04-26T04:36:55;102009.75;;;7.95;100.00
44765;BME280;30484;52.382;5.260;2023-04-26T04:39:24;102015.00;;;7.99;100.00
44765;BME280;30484;52.382;5.260;2023-04-26T04:41:53;102007.81;;;8.02;100.00
44765;BME280;30484;52.382;5.260;2023-04-26T04:44:23;102019.63;;;7.89;100.00
44765;BME280;30484;52.382;5.260;2023-04-26T04:46:57;102028.25;;;7.55;100.00
44765;BME280;30484;52.382;5.260;2023-04-26T04:49:33;102035.56;;;7.90;100.00
44765;BME280;30484;52.382;5.260;2023-04-26T04:52:29;102017.25;;;8.19;100.00
44765;BME280;30484;52.382;5.260;2023-04-26T04:54:59;102023.97;;;8.37;100.00
44765;BME280;30484;52.382;5.260;2023-04-26T04:57:29;102022.38;;;8.28;100.00
44765;BME280;30484;52.382;5.260;2023-04-26T05:00:09;102011.41;;;8.42;100.00
44765;BME280;30484;52.382;5.260;2023-04-26T05:02:40;102020.97;;;8.54;100.00
44765;BME280;30484;52.382;5.260;2023-04-26T05:05:10;102020.47;;;8.33;100.00
44765;BME280;30484;52.382;5.260;2023-04-26T05:07:42;102011.06;;;8.59;100.00
44765;BME280;30484;52.382;5.260;2023-04-26T05:10:11;102019.69;;;8.70;100.00
44765;BME280;30484;52.382;5.260;2023-04-26T05:12:40;102022.97;;;8.81;100.00
44765;BME280;30484;52.382;5.260;2023-04-26T05:15:09;102029.16;;;8.84;100.00
44765;BME280;30484;52.382;5.260;2023-04-26T05:17:40;102023.13;;;8.75;100.00
44765;BME280;30484;52.382;5.260;2023-04-26T05:20:10;102027.06;;;8.96;100.00
44765;BME280;30484;52.382;5.260;2023-04-26T05:22:39;102023.31;;;9.04;100.00
44765;BME280;30484;52.382;5.260;2023-04-26T05:25:09;102028.41;;;9.13;100.00
44765;BME280;30484;52.382;5.260;2023-04-26T05:27:37;102028.88;;;9.29;100.00
44765;BME280;30484;52.382;5.260;2023-04-26T05:30:09;102034.22;;;9.29;100.00
44765;BME280;30484;52.382;5.260;2023-04-26T05:32:40;102037.56;;;9.37;100.00
44765;BME280;30484;52.382;5.260;2023-04-26T05:35:09;102025.81;;;9.44;100.00
44765;BME280;30484;52.382;5.260;2023-04-26T05:37:39;102040.44;;;9.64;100.00
44765;BME280;30484;52.382;5.260;2023-04-26T05:40:09;102040.63;;;9.89;100.00
44765;BME280;30484;52.382;5.260;2023-04-26T05:42:39;102031.06;;;9.80;100.00
44765;BME280;30484;52.382;5.260;2023-04-26T05:45:09;102039.44;;;9.68;100.00
44765;BME280;30484;52.382;5.260;2023-04-26T05:47:39;102037.75;;;9.97;100.00
44765;BME280;30484;52.382;5.260;2023-04-26T05:50:09;102047.22;;;10.07;100.00
44765;BME280;30484;52.382;5.260;2023-04-26T05:52:41;102039.88;;;10.15;100.00
44765;BME280;30484;52.382;5.260;2023-04-26T05:55:10;102041.88;;;10.07;100.00
44765;BME280;30484;52.382;5.260;2023-04-26T05:57:39;102041.13;;;10.35;100.00
44765;BME280;30484;52.382;5.260;2023-04-26T06:00:09;102025.81;;;9.77;100.00
44765;BME280;30484;52.382;5.260;2023-04-26T06:02:40;102040.81;;;10.44;100.00
44765;BME280;30484;52.382;5.260;2023-04-26T06:05:09;102040.47;;;10.57;100.00
44765;BME280;30484;52.382;5.260;2023-04-26T06:07:38;102035.41;;;10.76;100.00
44765;BME280;30484;52.382;5.260;2023-04-26T06:10:08;102029.81;;;10.83;100.00
44765;BME280;30484;52.382;5.260;2023-04-26T06:12:39;102048.97;;;11.25;100.00
44765;BME280;30484;52.382;5.260;2023-04-26T06:15:09;102037.19;;;11.03;100.00
44765;BME280;30484;52.382;5.260;2023-04-26T06:17:39;102037.09;;;11.33;100.00
44765;BME280;30484;52.382;5.260;2023-04-26T06:20:10;102045.28;;;11.29;100.00
44765;BME280;30484;52.382;5.260;2023-04-26T06:22:39;102044.44;;;11.27;100.00
44765;BME280;30484;52.382;5.260;2023-04-26T06:25:08;102041.97;;;11.20;100.00
44765;BME280;30484;52.382;5.260;2023-04-26T06:27:37;102036.28;;;11.56;100.00
44765;BME280;30484;52.382;5.260;2023-04-26T06:30:07;102037.69;;;11.67;100.00
44765;BME280;30484;52.382;5.260;2023-04-26T06:32:37;102053.31;;;11.29;100.00
44765;BME280;30484;52.382;5.260;2023-04-26T06:35:08;102047.25;;;11.74;100.00
44765;BME280;30484;52.382;5.260;2023-04-26T06:37:37;102053.56;;;11.73;100.00
44765;BME280;30484;52.382;5.260;2023-04-26T06:40:09;102052.66;;;11.47;100.00
44765;BME280;30484;52.382;5.260;2023-04-26T06:42:40;102058.56;;;11.82;100.00
44765;BME280;30484;52.382;5.260;2023-04-26T06:45:11;102052.38;;;12.05;100.00
44765;BME280;30484;52.382;5.260;2023-04-26T06:47:40;102055.94;;;12.30;100.00
44765;BME280;30484;52.382;5.260;2023-04-26T06:50:13;102047.81;;;12.33;100.00
44765;BME280;30484;52.382;5.260;2023-04-26T06:52:42;102057.56;;;12.34;100.00
44765;BME280;30484;52.382;5.260;2023-04-26T06:55:11;102059.22;;;12.38;100.00
44765;BME280;30484;52.382;5.260;2023-04-26T06:57:41;102061.84;;;12.39;100.00
44765;BME280;30484;52.382;5.260;2023-04-26T07:00:12;102071.25;;;12.73;100.00
44765;BME280;30484;52.382;5.260;2023-04-26T07:02:44;102064.97;;;12.51;100.00
44765;BME280;30484;52.382;5.260;2023-04-26T07:05:20;102068.94;;;12.40;100.00
44765;BME280;30484;52.382;5.260;2023-04-26T07:07:48;102073.44;;;12.16;100.00
44765;BME280;30484;52.382;5.260;2023-04-26T07:10:17;102075.97;;;12.67;100.00
44765;BME280;30484;52.382;5.260;2023-04-26T07:12:47;102070.06;;;12.58;100.00
44765;BME280;30484;52.382;5.260;2023-04-26T07:15:15;102070.19;;;12.77;100.00
44765;BME280;30484;52.382;5.260;2023-04-26T07:17:44;102066.53;;;12.56;100.00
44765;BME280;30484;52.382;5.260;2023-04-26T07:20:12;102070.78;;;12.62;100.00
44765;BME280;30484;52.382;5.260;2023-04-26T07:22:47;102059.56;;;12.97;100.00
44765;BME280;30484;52.382;5.260;2023-04-26T07:25:16;102073.19;;;12.46;100.00
44765;BME280;30484;52.382;5.260;2023-04-26T07:27:44;102075.22;;;12.85;100.00
44765;BME280;30484;52.382;5.260;2023-04-26T07:30:13;102063.47;;;13.11;100.00
44765;BME280;30484;52.382;5.260;2023-04-26T07:32:42;102071.75;;;13.05;100.00
44765;BME280;30484;52.382;5.260;2023-04-26T07:35:11;102068.03;;;13.52;100.00
44765;BME280;30484;52.382;5.260;2023-04-26T07:37:42;102067.09;;;13.53;100.00
44765;BME280;30484;52.382;5.260;2023-04-26T07:40:13;102078.38;;;13.82;100.00
44765;BME280;30484;52.382;5.260;2023-04-26T07:42:42;102064.66;;;14.09;100.00
44765;BME280;30484;52.382;5.260;2023-04-26T07:45:11;102075.53;;;14.45;100.00
44765;BME280;30484;52.382;5.260;2023-04-26T07:47:40;102063.22;;;13.81;100.00
44765;BME280;30484;52.382;5.260;2023-04-26T07:50:10;102073.63;;;14.28;100.00
44765;BME280;30484;52.382;5.260;2023-04-26T07:52:39;102076.53;;;14.03;100.00
44765;BME280;30484;52.382;5.260;2023-04-26T07:55:09;102083.63;;;14.25;100.00
44765;BME280;30484;52.382;5.260;2023-04-26T07:57:41;102074.13;;;13.76;100.00
44765;BME280;30484;52.382;5.260;2023-04-26T08:00:12;102083.84;;;14.39;100.00
44765;BME280;30484;52.382;5.260;2023-04-26T08:02:43;102085.97;;;14.72;100.00
44765;BME280;30484;52.382;5.260;2023-04-26T08:05:13;102094.28;;;14.66;100.00
44765;BME280;30484;52.382;5.260;2023-04-26T08:07:42;102091.53;;;14.67;100.00
44765;BME280;30484;52.382;5.260;2023-04-26T08:10:11;102089.66;;;14.70;100.00
44765;BME280;30484;52.382;5.260;2023-04-26T08:12:41;102094.28;;;14.47;100.00
44765;BME280;30484;52.382;5.260;2023-04-26T08:15:11;102091.44;;;14.69;100.00
44765;BME280;30484;52.382;5.260;2023-04-26T08:17:40;102088.06;;;13.66;100.00
44765;BME280;30484;52.382;5.260;2023-04-26T08:20:09;102083.81;;;14.60;100.00
44765;BME280;30484;52.382;5.260;2023-04-26T08:22:39;102086.28;;;15.02;100.00
44765;BME280;30484;52.382;5.260;2023-04-26T08:25:09;102083.06;;;14.56;100.00
44765;BME280;30484;52.382;5.260;2023-04-26T08:27:37;102083.66;;;14.82;100.00
44765;BME280;30484;52.382;5.260;2023-04-26T08:30:09;102081.59;;;14.70;100.00
44765;BME280;30484;52.382;5.260;2023-04-26T08:32:38;102086.50;;;14.79;100.00
44765;BME280;30484;52.382;5.260;2023-04-26T08:35:08;102086.66;;;14.76;100.00
44765;BME280;30484;52.382;5.260;2023-04-26T08:37:36;102093.34;;;14.48;100.00
44765;BME280;30484;52.382;5.260;2023-04-26T08:40:10;102088.22;;;14.23;100.00
44765;BME280;30484;52.382;5.260;2023-04-26T08:42:40;102081.47;;;14.52;100.00
44765;BME280;30484;52.382;5.260;2023-04-26T08:45:11;102088.88;;;15.41;100.00
44765;BME280;30484;52.382;5.260;2023-04-26T08:47:43;102084.25;;;15.60;100.00
44765;BME280;30484;52.382;5.260;2023-04-26T08:50:17;102080.94;;;15.38;100.00
44765;BME280;30484;52.382;5.260;2023-04-26T08:52:49;102083.88;;;15.68;100.00
44765;BME280;30484;52.382;5.260;2023-04-26T08:55:19;102079.75;;;16.13;100.00
44765;BME280;30484;52.382;5.260;2023-04-26T08:57:51;102079.28;;;16.86;100.00
44765;BME280;30484;52.382;5.260;2023-04-26T09:00:21;102085.22;;;15.77;100.00
44765;BME280;30484;52.382;5.260;2023-04-26T09:02:53;102087.91;;;15.94;100.00
44765;BME280;30484;52.382;5.260;2023-04-26T09:05:24;102076.22;;;16.77;100.00
44765;BME280;30484;52.382;5.260;2023-04-26T09:07:56;102082.06;;;16.03;100.00
44765;BME280;30484;52.382;5.260;2023-04-26T09:10:27;102074.91;;;16.02;100.00
44765;BME280;30484;52.382;5.260;2023-04-26T09:12:58;102076.84;;;16.00;100.00
44765;BME280;30484;52.382;5.260;2023-04-26T09:15:28;102079.38;;;17.01;100.00
44765;BME280;30484;52.382;5.260;2023-04-26T09:18:15;102070.47;;;16.51;100.00
44765;BME280;30484;52.382;5.260;2023-04-26T09:20:45;102084.19;;;16.30;100.00
44765;BME280;30484;52.382;5.260;2023-04-26T09:23:28;102076.56;;;16.38;100.00
44765;BME280;30484;52.382;5.260;2023-04-26T09:26:17;102080.16;;;16.55;100.00
44765;BME280;30484;52.382;5.260;2023-04-26T09:28:46;102082.41;;;16.63;100.00
44765;BME280;30484;52.382;5.260;2023-04-26T09:31:36;102088.84;;;15.76;100.00
44765;BME280;30484;52.382;5.260;2023-04-26T09:34:06;102083.34;;;16.46;100.00
44765;BME280;30484;52.382;5.260;2023-04-26T09:36:50;102078.69;;;16.16;100.00
44765;BME280;30484;52.382;5.260;2023-04-26T09:39:33;102085.69;;;15.50;100.00
44765;BME280;30484;52.382;5.260;2023-04-26T09:42:04;102093.16;;;15.62;100.00
44765;BME280;30484;52.382;5.260;2023-04-26T09:44:34;102090.84;;;15.37;100.00
44765;BME280;30484;52.382;5.260;2023-04-26T09:47:07;102088.38;;;15.15;100.00
44765;BME280;30484;52.382;5.260;2023-04-26T09:49:45;102085.41;;;15.91;100.00
44765;BME280;30484;52.382;5.260;2023-04-26T09:52:16;102089.84;;;16.26;100.00
44765;BME280;30484;52.382;5.260;2023-04-26T09:54:46;102083.03;;;16.18;100.00
44765;BME280;30484;52.382;5.260;2023-04-26T09:57:16;102086.75;;;16.16;100.00
44765;BME280;30484;52.382;5.260;2023-04-26T09:59:48;102080.78;;;16.11;100.00
44765;BME280;30484;52.382;5.260;2023-04-26T10:02:25;102092.19;;;15.63;100.00
44765;BME280;30484;52.382;5.260;2023-04-26T10:04:55;102085.03;;;15.10;100.00
44765;BME280;30484;52.382;5.260;2023-04-26T10:07:28;102086.44;;;14.99;100.00
44765;BME280;30484;52.382;5.260;2023-04-26T10:09:58;102085.97;;;15.09;100.00
44765;BME280;30484;52.382;5.260;2023-04-26T10:12:33;102087.97;;;14.48;100.00
44765;BME280;30484;52.382;5.260;2023-04-26T10:15:03;102092.50;;;14.27;100.00
44765;BME280;30484;52.382;5.260;2023-04-26T10:17:34;102092.22;;;14.33;100.00
44765;BME280;30484;52.382;5.260;2023-04-26T10:20:09;102091.34;;;13.93;100.00
44765;BME280;30484;52.382;5.260;2023-04-26T10:22:47;102088.28;;;14.21;100.00
44765;BME280;30484;52.382;5.260;2023-04-26T10:25:19;102092.88;;;13.98;100.00
44765;BME280;30484;52.382;5.260;2023-04-26T10:27:51;102097.72;;;14.11;100.00
44765;BME280;30484;52.382;5.260;2023-04-26T10:30:21;102083.22;;;13.94;100.00
44765;BME280;30484;52.382;5.260;2023-04-26T10:33:18;102090.56;;;13.48;100.00
44765;BME280;30484;52.382;5.260;2023-04-26T10:36:09;102095.25;;;13.86;100.00
44765;BME280;30484;52.382;5.260;2023-04-26T10:38:40;102091.88;;;13.60;100.00
44765;BME280;30484;52.382;5.260;2023-04-26T10:41:30;102087.44;;;13.59;100.00
44765;BME280;30484;52.382;5.260;2023-04-26T10:44:36;102092.19;;;14.14;100.00
44765;BME280;30484;52.382;5.260;2023-04-26T10:47:06;102089.69;;;14.09;100.00
44765;BME280;30484;52.382;5.260;2023-04-26T10:49:46;102084.88;;;14.56;100.00
44765;BME280;30484;52.382;5.260;2023-04-26T10:52:17;102086.16;;;14.28;100.00
44765;BME280;30484;52.382;5.260;2023-04-26T10:54:55;102084.91;;;14.37;100.00
44765;BME280;30484;52.382;5.260;2023-04-26T10:57:50;102080.31;;;14.39;100.00
44765;BME280;30484;52.382;5.260;2023-04-26T11:00:39;102087.59;;;14.75;100.00
44765;BME280;30484;52.382;5.260;2023-04-26T11:03:10;102086.44;;;14.99;100.00
44765;BME280;30484;52.382;5.260;2023-04-26T11:05:55;102075.94;;;15.30;100.00
44765;BME280;30484;52.382;5.260;2023-04-26T11:08:29;102081.41;;;15.46;100.00
44765;BME280;30484;52.382;5.260;2023-04-26T11:11:06;102079.41;;;15.14;100.00
44765;BME280;30484;52.382;5.260;2023-04-26T11:13:37;102064.78;;;14.06;100.00
44765;BME280;30484;52.382;5.260;2023-04-26T11:16:09;102063.66;;;15.77;100.00
44765;BME280;30484;52.382;5.260;2023-04-26T11:18:42;102066.44;;;15.40;100.00
44765;BME280;30484;52.382;5.260;2023-04-26T11:21:14;102060.81;;;16.47;100.00
44765;BME280;30484;52.382;5.260;2023-04-26T11:23:54;102059.88;;;16.14;100.00
44765;BME280;30484;52.382;5.260;2023-04-26T11:26:32;102061.44;;;16.84;100.00
44765;BME280;30484;52.382;5.260;2023-04-26T11:29:06;102047.66;;;17.65;100.00
44765;BME280;30484;52.382;5.260;2023-04-26T11:31:36;102055.56;;;17.23;100.00
44765;BME280;30484;52.382;5.260;2023-04-26T11:34:06;102041.59;;;16.85;100.00
44765;BME280;30484;52.382;5.260;2023-04-26T11:36:37;102032.72;;;16.51;93.72
44765;BME280;30484;52.382;5.260;2023-04-26T11:39:10;102040.84;;;17.29;90.46
44765;BME280;30484;52.382;5.260;2023-04-26T11:41:40;102042.06;;;16.93;89.00
44765;BME280;30484;52.382;5.260;2023-04-26T11:44:10;102040.72;;;16.36;87.80
44765;BME280;30484;52.382;5.260;2023-04-26T11:46:40;102043.72;;;16.14;93.00
44765;BME280;30484;52.382;5.260;2023-04-26T11:49:09;102050.94;;;16.14;94.26
44765;BME280;30484;52.382;5.260;2023-04-26T11:51:39;102048.81;;;16.52;94.75
44765;BME280;30484;52.382;5.260;2023-04-26T11:54:08;102053.94;;;16.41;95.63
44765;BME280;30484;52.382;5.260;2023-04-26T11:56:38;102051.97;;;16.11;96.94
44765;BME280;30484;52.382;5.260;2023-04-26T11:59:07;102053.75;;;16.28;97.96
44765;BME280;30484;52.382;5.260;2023-04-26T12:01:36;102056.00;;;16.20;100.00
44765;BME280;30484;52.382;5.260;2023-04-26T12:04:09;102059.78;;;16.00;100.00
44765;BME280;30484;52.382;5.260;2023-04-26T12:06:45;102063.53;;;15.80;100.00
44765;BME280;30484;52.382;5.260;2023-04-26T12:09:15;102061.59;;;15.99;100.00
44765;BME280;30484;52.382;5.260;2023-04-26T12:11:47;102061.13;;;15.91;100.00
44765;BME280;30484;52.382;5.260;2023-04-26T12:14:20;102063.84;;;15.91;100.00
44765;BME280;30484;52.382;5.260;2023-04-26T12:16:49;102068.34;;;15.38;100.00
44765;BME280;30484;52.382;5.260;2023-04-26T12:19:22;102069.44;;;15.69;100.00
44765;BME280;30484;52.382;5.260;2023-04-26T12:21:52;102061.25;;;16.05;100.00
44765;BME280;30484;52.382;5.260;2023-04-26T12:24:23;102067.66;;;15.52;100.00
44765;BME280;30484;52.382;5.260;2023-04-26T12:26:52;102065.59;;;15.92;100.00
44765;BME280;30484;52.382;5.260;2023-04-26T12:29:21;102066.78;;;16.20;100.00
44765;BME280;30484;52.382;5.260;2023-04-26T12:31:49;102075.53;;;15.38;100.00
44765;BME280;30484;52.382;5.260;2023-04-26T12:34:18;102073.97;;;16.03;98.58
44765;BME280;30484;52.382;5.260;2023-04-26T12:36:46;102080.28;;;15.67;100.00
44765;BME280;30484;52.382;5.260;2023-04-26T12:39:19;102084.91;;;15.48;100.00
44765;BME280;30484;52.382;5.260;2023-04-26T12:41:48;102075.38;;;16.11;98.72
44765;BME280;30484;52.382;5.260;2023-04-26T12:44:16;102073.63;;;16.10;97.66
44765;BME280;30484;52.382;5.260;2023-04-26T12:46:48;102088.13;;;16.41;98.21
44765;BME280;30484;52.382;5.260;2023-04-26T12:49:17;102072.50;;;16.14;97.52
44765;BME280;30484;52.382;5.260;2023-04-26T12:51:47;102073.69;;;16.42;98.41
44765;BME280;30484;52.382;5.260;2023-04-26T12:54:17;102077.53;;;16.37;90.15
44765;BME280;30484;52.382;5.260;2023-04-26T12:56:46;102080.78;;;16.92;93.63
44765;BME280;30484;52.382;5.260;2023-04-26T12:59:15;102077.69;;;17.30;90.26
44765;BME280;30484;52.382;5.260;2023-04-26T13:01:48;102072.31;;;17.14;95.44
44765;BME280;30484;52.382;5.260;2023-04-26T13:04:17;102065.94;;;17.46;94.82